Time;durP1;ratioP1;P1;durP2;ratioP2;P2;SDS_P1;SDS_P2;PMS_P1;PMS_P2;Temp;Humidity;BMP_temperature;BMP_pressure;BME280_temperature;BME280_humidity;BME280_pressure;Samples;Min_cycle;Max_cycle;Signal;HPM_P1;HPM_P2
2022/09/06 00:00:16;;;;;;;;;;;23.00;59.00;;;;;;5035676;28;19931;-80
2022/09/06 00:02:43;;;;;;;;;;;22.90;59.00;;;;;;5039877;28;19967;-79
2022/09/06 00:05:11;;;;;;;;;;;22.90;59.10;;;;;;5040752;28;19972;-80
2022/09/06 00:07:37;;;;;;;;;;;22.90;59.10;;;;;;5039534;28;19924;-79
2022/09/06 00:10:05;;;;;;;;;;;22.90;59.10;;;;;;5037629;28;19932;-79
2022/09/06 00:12:31;;;;;;;;;;;22.80;59.30;;;;;;5038921;28;20603;-79
2022/09/06 00:14:58;;;;;;;;;;;22.80;59.30;;;;;;5040610;28;19935;-79
2022/09/06 00:17:26;;;;;;;;;;;22.80;59.40;;;;;;5041217;28;19943;-79
2022/09/06 00:19:53;;;;;;;;;;;22.80;59.50;;;;;;5039651;28;19937;-78
2022/09/06 00:22:19;;;;;;;;;;;22.70;59.40;;;;;;5038409;28;20595;-77
2022/09/06 00:24:46;;;;;;;;;;;22.70;59.60;;;;;;5041272;28;19932;-80
2022/09/06 00:27:12;;;;;;;;;;;22.70;59.70;;;;;;5041079;28;19933;-78
2022/09/06 00:29:39;;;;;;;;;;;22.70;59.80;;;;;;5041068;28;19935;-78
2022/09/06 00:32:05;;;;;;;;;;;22.60;59.80;;;;;;5039588;28;19932;-79
2022/09/06 00:34:33;;;;;;;;;;;22.60;59.90;;;;;;5037907;28;20253;-78
2022/09/06 00:37:00;;;;;;;;;;;22.60;59.90;;;;;;5038899;28;19929;-79
2022/09/06 00:39:26;;;;;;;;;;;22.50;59.90;;;;;;5032076;28;20570;-79
2022/09/06 00:41:53;;;;;;;;;;;22.50;60.10;;;;;;5037950;28;19940;-78
2022/09/06 00:44:19;;;;;;;;;;;22.50;60.30;;;;;;5041583;28;20395;-79
2022/09/06 00:46:47;;;;;;;;;;;22.50;60.30;;;;;;5035452;28;19929;-79
2022/09/06 00:49:22;;;;;;;;;;;22.40;60.40;;;;;;5037954;28;19944;-80
2022/09/06 00:51:51;;;;;;;;;;;22.40;60.60;;;;;;5040902;28;19939;-79
2022/09/06 00:54:18;;;;;;;;;;;22.40;61.30;;;;;;5038510;28;20023;-78
2022/09/06 00:56:45;;;;;;;;;;;22.40;60.70;;;;;;5040856;28;19936;-79
2022/09/06 00:59:12;;;;;;;;;;;22.40;60.70;;;;;;5040137;28;20010;-79
2022/09/06 01:01:38;;;;;;;;;;;22.30;60.90;;;;;;5039735;28;20008;-79
2022/09/06 01:04:05;;;;;;;;;;;22.30;61.00;;;;;;5039324;28;19936;-79
2022/09/06 01:06:38;;;;;;;;;;;22.30;61.00;;;;;;5040155;28;19933;-79
2022/09/06 01:09:09;;;;;;;;;;;22.30;60.90;;;;;;5038151;28;19982;-79
2022/09/06 01:11:42;;;;;;;;;;;22.30;61.20;;;;;;5037669;28;20019;-80
2022/09/06 01:14:14;;;;;;;;;;;22.20;61.30;;;;;;5039783;28;19932;-79
2022/09/06 01:16:43;;;;;;;;;;;22.20;61.40;;;;;;5038637;28;19929;-79
2022/09/06 01:19:20;;;;;;;;;;;22.20;61.40;;;;;;5040742;28;20570;-79
2022/09/06 01:21:49;;;;;;;;;;;22.10;61.40;;;;;;5037038;28;19933;-80
2022/09/06 01:24:25;;;;;;;;;;;22.10;61.50;;;;;;5037755;28;19940;-80
2022/09/06 01:27:05;;;;;;;;;;;22.10;61.60;;;;;;5042242;28;19935;-80
2022/09/06 01:29:36;;;;;;;;;;;22.10;61.60;;;;;;5039962;28;20487;-78
2022/09/06 01:32:06;;;;;;;;;;;22.10;61.80;;;;;;5041972;28;19944;-79
2022/09/06 01:34:35;;;;;;;;;;;22.10;62.10;;;;;;5039698;28;19936;-79
2022/09/06 01:37:04;;;;;;;;;;;22.00;62.00;;;;;;5037992;28;19928;-79
2022/09/06 01:39:32;;;;;;;;;;;22.00;61.90;;;;;;5035484;28;20344;-80
2022/09/06 01:42:02;;;;;;;;;;;22.00;62.00;;;;;;5041077;28;20190;-79
2022/09/06 01:44:29;;;;;;;;;;;22.00;62.10;;;;;;5040837;28;19929;-79
2022/09/06 01:47:01;;;;;;;;;;;22.00;62.00;;;;;;5040978;28;19936;-80
2022/09/06 01:49:33;;;;;;;;;;;21.90;62.00;;;;;;5040867;28;19936;-79
2022/09/06 01:52:06;;;;;;;;;;;22.00;62.20;;;;;;5043000;28;19943;-79
2022/09/06 01:54:41;;;;;;;;;;;21.90;62.40;;;;;;5042633;28;19935;-79
2022/09/06 01:57:19;;;;;;;;;;;21.90;62.70;;;;;;5042813;28;19929;-79
2022/09/06 01:59:54;;;;;;;;;;;21.90;63.10;;;;;;5043846;28;19936;-79
2022/09/06 02:02:25;;;;;;;;;;;21.90;63.20;;;;;;5043237;28;19931;-78
2022/09/06 02:04:57;;;;;;;;;;;21.90;63.20;;;;;;5043364;28;19928;-78
2022/09/06 02:07:25;;;;;;;;;;;21.80;63.60;;;;;;5041756;28;20021;-79
2022/09/06 02:09:55;;;;;;;;;;;21.80;63.60;;;;;;5042891;28;19936;-79
2022/09/06 02:12:22;;;;;;;;;;;21.80;63.70;;;;;;5043999;28;19935;-78
2022/09/06 02:14:51;;;;;;;;;;;21.80;63.90;;;;;;5043464;28;20375;-78
2022/09/06 02:17:20;;;;;;;;;;;21.80;64.10;;;;;;5041908;28;19937;-79
2022/09/06 02:19:49;;;;;;;;;;;21.80;64.10;;;;;;5044527;28;19925;-79
2022/09/06 02:22:19;;;;;;;;;;;21.80;64.00;;;;;;5045460;28;19936;-79
2022/09/06 02:24:47;;;;;;;;;;;21.70;63.90;;;;;;5041999;28;19928;-79
2022/09/06 02:27:14;;;;;;;;;;;21.70;64.10;;;;;;5041196;28;19932;-80
2022/09/06 02:29:41;;;;;;;;;;;21.70;64.20;;;;;;5041569;28;19929;-78
2022/09/06 02:32:10;;;;;;;;;;;21.70;64.60;;;;;;5039769;28;19928;-81
2022/09/06 02:34:38;;;;;;;;;;;21.70;64.90;;;;;;5040576;28;19936;-79
2022/09/06 02:37:07;;;;;;;;;;;21.70;65.30;;;;;;5041324;28;19936;-78
2022/09/06 02:39:33;;;;;;;;;;;21.70;65.50;;;;;;5039019;28;19940;-78
2022/09/06 02:42:01;;;;;;;;;;;21.60;65.70;;;;;;5041690;28;19935;-80
2022/09/06 02:44:27;;;;;;;;;;;21.60;65.90;;;;;;5042184;28;19928;-79
2022/09/06 02:46:54;;;;;;;;;;;21.60;66.10;;;;;;5040256;28;19928;-80
2022/09/06 02:49:20;;;;;;;;;;;21.60;66.30;;;;;;5042099;28;19935;-80
2022/09/06 02:51:47;;;;;;;;;;;21.60;66.50;;;;;;5041607;28;19935;-80
2022/09/06 02:54:15;;;;;;;;;;;21.50;66.50;;;;;;5042298;28;19940;-80
2022/09/06 02:56:42;;;;;;;;;;;21.50;66.60;;;;;;5042501;28;19936;-77
2022/09/06 02:59:08;;;;;;;;;;;21.50;66.60;;;;;;5039863;28;19971;-77
2022/09/06 03:01:35;;;;;;;;;;;21.50;66.60;;;;;;5041336;28;19929;-76
2022/09/06 03:04:01;;;;;;;;;;;21.50;66.80;;;;;;5041818;28;19975;-77
2022/09/06 03:06:28;;;;;;;;;;;21.50;67.10;;;;;;5041381;28;20087;-76
2022/09/06 03:08:55;;;;;;;;;;;21.50;67.40;;;;;;5037535;28;19936;-77
2022/09/06 03:11:22;;;;;;;;;;;21.40;67.50;;;;;;5040228;28;19935;-77
2022/09/06 03:13:49;;;;;;;;;;;21.40;67.60;;;;;;5041522;28;19983;-78
2022/09/06 03:16:16;;;;;;;;;;;21.40;67.80;;;;;;5037276;28;19939;-78
2022/09/06 03:18:43;;;;;;;;;;;21.40;68.00;;;;;;5040025;28;19936;-78
2022/09/06 03:21:10;;;;;;;;;;;21.40;69.10;;;;;;5039932;28;20643;-77
2022/09/06 03:23:38;;;;;;;;;;;21.40;68.40;;;;;;5042448;28;19932;-76
2022/09/06 03:26:05;;;;;;;;;;;21.30;68.40;;;;;;5040276;28;19931;-76
2022/09/06 03:28:33;;;;;;;;;;;21.20;72.00;;;;;;5045484;28;20000;-78
2022/09/06 03:30:59;;;;;;;;;;;21.20;72.30;;;;;;5054545;28;19936;-79
2022/09/06 03:33:26;;;;;;;;;;;21.10;71.70;;;;;;5047378;28;20268;-78
2022/09/06 03:35:54;;;;;;;;;;;21.00;71.70;;;;;;5047374;28;19932;-78
2022/09/06 03:38:21;;;;;;;;;;;21.00;72.00;;;;;;5042648;28;20336;-78
2022/09/06 03:40:48;;;;;;;;;;;21.00;72.10;;;;;;5046725;28;19929;-78
2022/09/06 03:43:15;;;;;;;;;;;21.00;72.10;;;;;;5053048;28;19935;-78
2022/09/06 03:45:45;;;;;;;;;;;21.00;72.20;;;;;;5045916;28;19951;-78
2022/09/06 03:48:12;;;;;;;;;;;21.00;72.10;;;;;;5047425;28;19929;-78
2022/09/06 03:50:39;;;;;;;;;;;20.90;72.00;;;;;;5048459;28;19932;-78
2022/09/06 03:53:05;;;;;;;;;;;20.90;72.10;;;;;;5047134;28;19924;-78
2022/09/06 03:55:32;;;;;;;;;;;20.90;72.10;;;;;;5046527;28;19933;-78
2022/09/06 03:57:58;;;;;;;;;;;20.90;72.30;;;;;;5044813;28;19947;-79
2022/09/06 04:00:25;;;;;;;;;;;20.80;72.20;;;;;;5044017;28;19937;-78
2022/09/06 04:02:53;;;;;;;;;;;20.80;72.20;;;;;;5048868;28;20466;-77
2022/09/06 04:05:19;;;;;;;;;;;20.80;72.30;;;;;;5046273;28;20840;-78
2022/09/06 04:07:46;;;;;;;;;;;20.80;72.30;;;;;;5045178;28;19925;-77
2022/09/06 04:10:12;;;;;;;;;;;20.70;72.20;;;;;;5045419;28;19932;-77
2022/09/06 04:12:39;;;;;;;;;;;20.70;72.30;;;;;;5048363;28;20401;-77
2022/09/06 04:15:06;;;;;;;;;;;20.70;72.20;;;;;;5041437;28;19940;-77
2022/09/06 04:17:32;;;;;;;;;;;20.70;72.30;;;;;;5046632;28;19963;-77
2022/09/06 04:20:00;;;;;;;;;;;20.70;72.40;;;;;;5043885;28;19932;-77
2022/09/06 04:22:27;;;;;;;;;;;20.60;72.40;;;;;;5053393;28;19935;-78
2022/09/06 04:24:53;;;;;;;;;;;20.60;72.50;;;;;;5045573;28;19929;-77
2022/09/06 04:27:20;;;;;;;;;;;20.60;72.50;;;;;;5041772;28;19983;-78
2022/09/06 04:29:46;;;;;;;;;;;20.50;72.20;;;;;;5045337;28;20272;-77
2022/09/06 04:32:13;;;;;;;;;;;20.50;72.30;;;;;;5041920;28;19933;-77
2022/09/06 04:34:40;;;;;;;;;;;20.50;72.40;;;;;;5043581;28;19971;-77
2022/09/06 04:37:07;;;;;;;;;;;20.50;72.60;;;;;;5044648;28;19936;-78
2022/09/06 04:39:34;;;;;;;;;;;20.50;72.70;;;;;;5042775;28;19978;-77
2022/09/06 04:42:00;;;;;;;;;;;20.40;72.70;;;;;;5048966;28;19924;-77
2022/09/06 04:44:27;;;;;;;;;;;20.40;72.90;;;;;;5046584;28;19935;-77
2022/09/06 04:47:02;;;;;;;;;;;20.40;72.90;;;;;;5048145;28;19933;-77
2022/09/06 04:49:29;;;;;;;;;;;20.30;72.90;;;;;;5047069;28;19959;-76
2022/09/06 04:51:55;;;;;;;;;;;20.30;72.90;;;;;;5050832;28;19933;-77
2022/09/06 04:54:23;;;;;;;;;;;20.30;73.00;;;;;;5048289;28;19966;-77
2022/09/06 04:56:50;;;;;;;;;;;20.30;73.20;;;;;;5046555;28;19925;-78
2022/09/06 04:59:16;;;;;;;;;;;20.20;73.20;;;;;;5045071;28;20405;-78
2022/09/06 05:01:43;;;;;;;;;;;20.20;73.20;;;;;;5047760;28;19936;-77
2022/09/06 05:04:09;;;;;;;;;;;20.20;73.30;;;;;;5046779;28;19932;-78
2022/09/06 05:06:36;;;;;;;;;;;20.20;73.30;;;;;;5046634;28;19932;-77
2022/09/06 05:09:03;;;;;;;;;;;20.10;73.30;;;;;;5047470;28;20463;-77
2022/09/06 05:11:31;;;;;;;;;;;20.10;73.30;;;;;;5049672;28;19925;-78
2022/09/06 05:13:57;;;;;;;;;;;20.10;73.40;;;;;;5049160;28;19936;-76
2022/09/06 05:16:24;;;;;;;;;;;20.10;73.40;;;;;;5050293;28;19924;-79
2022/09/06 05:18:51;;;;;;;;;;;20.00;73.40;;;;;;5045150;28;19944;-78
2022/09/06 05:21:17;;;;;;;;;;;20.00;73.50;;;;;;5043077;28;20043;-78
2022/09/06 05:23:44;;;;;;;;;;;20.00;73.60;;;;;;5045641;28;20357;-78
2022/09/06 05:26:10;;;;;;;;;;;20.00;73.60;;;;;;5044070;28;19982;-78
2022/09/06 05:28:38;;;;;;;;;;;19.90;73.50;;;;;;5047256;28;20335;-79
2022/09/06 05:31:06;;;;;;;;;;;20.00;73.70;;;;;;5043870;28;19932;-78
2022/09/06 05:33:32;;;;;;;;;;;20.00;73.80;;;;;;5045720;28;20707;-79
2022/09/06 05:35:59;;;;;;;;;;;20.00;73.80;;;;;;5035341;28;19928;-77
2022/09/06 05:38:25;;;;;;;;;;;19.90;73.90;;;;;;5035892;28;19933;-72
2022/09/06 05:40:52;;;;;;;;;;;19.90;74.00;;;;;;5042592;28;20580;-71
2022/09/06 05:43:19;;;;;;;;;;;19.90;74.00;;;;;;5048032;28;20012;-72
2022/09/06 05:45:47;;;;;;;;;;;19.90;74.00;;;;;;5044515;28;19935;-72
2022/09/06 05:48:13;;;;;;;;;;;19.90;74.00;;;;;;5043873;28;19955;-73
2022/09/06 05:50:40;;;;;;;;;;;19.80;73.90;;;;;;5043669;28;19973;-72
2022/09/06 05:53:06;;;;;;;;;;;19.80;74.10;;;;;;5041856;28;20367;-73
2022/09/06 05:55:33;;;;;;;;;;;19.80;74.20;;;;;;5044380;28;19974;-74
2022/09/06 05:57:59;;;;;;;;;;;19.80;74.10;;;;;;5044513;28;19933;-69
2022/09/06 06:00:26;;;;;;;;;;;19.80;74.20;;;;;;5043316;28;19967;-72
2022/09/06 06:02:53;;;;;;;;;;;19.80;74.30;;;;;;5045726;28;19928;-72
2022/09/06 06:05:20;;;;;;;;;;;19.80;74.40;;;;;;5046043;28;19933;-72
2022/09/06 06:07:47;;;;;;;;;;;19.80;74.40;;;;;;5034670;28;19929;-74
2022/09/06 06:10:13;;;;;;;;;;;19.80;74.50;;;;;;5032792;28;19940;-74
2022/09/06 06:12:40;;;;;;;;;;;19.80;74.60;;;;;;5039859;28;19940;-73
2022/09/06 06:15:06;;;;;;;;;;;19.80;74.70;;;;;;5038350;28;19944;-73
2022/09/06 06:17:33;;;;;;;;;;;19.70;74.70;;;;;;5039802;28;19929;-73
2022/09/06 06:20:02;;;;;;;;;;;19.70;74.70;;;;;;5037109;28;19929;-74
2022/09/06 06:22:28;;;;;;;;;;;19.70;74.80;;;;;;5040081;28;19959;-74
2022/09/06 06:24:55;;;;;;;;;;;19.70;74.70;;;;;;5037332;28;19933;-73
2022/09/06 06:27:21;;;;;;;;;;;19.80;74.90;;;;;;5039463;28;19929;-74
2022/09/06 06:29:49;;;;;;;;;;;19.70;74.80;;;;;;5038693;28;19971;-74
2022/09/06 06:32:15;;;;;;;;;;;19.70;74.90;;;;;;5038161;28;19955;-74
2022/09/06 06:34:42;;;;;;;;;;;19.70;74.90;;;;;;5040918;28;20788;-74
2022/09/06 06:37:10;;;;;;;;;;;19.70;75.00;;;;;;5039837;28;19929;-73
2022/09/06 06:39:37;;;;;;;;;;;19.70;75.00;;;;;;5041625;28;20414;-74
2022/09/06 06:42:04;;;;;;;;;;;19.70;75.10;;;;;;5042813;28;20040;-74
2022/09/06 06:44:30;;;;;;;;;;;19.70;75.10;;;;;;5044756;28;19929;-74
2022/09/06 06:47:00;;;;;;;;;;;19.80;75.20;;;;;;5042084;28;19932;-73
2022/09/06 06:49:27;;;;;;;;;;;19.70;75.20;;;;;;5039934;28;19936;-74
2022/09/06 06:51:53;;;;;;;;;;;19.70;75.20;;;;;;5039639;28;19944;-73
2022/09/06 06:54:21;;;;;;;;;;;19.70;75.30;;;;;;5040931;28;20565;-74
2022/09/06 06:56:48;;;;;;;;;;;19.70;75.30;;;;;;5038611;28;20552;-74
2022/09/06 06:59:14;;;;;;;;;;;19.70;75.20;;;;;;5042676;28;20258;-74
2022/09/06 07:01:41;;;;;;;;;;;19.70;75.20;;;;;;5041995;28;19936;-74
2022/09/06 07:04:09;;;;;;;;;;;19.70;75.20;;;;;;5040535;28;19936;-74
2022/09/06 07:06:49;;;;;;;;;;;19.70;75.10;;;;;;5042691;28;20478;-74
2022/09/06 07:09:16;;;;;;;;;;;19.70;75.10;;;;;;5038996;28;19956;-73
2022/09/06 07:11:45;;;;;;;;;;;19.80;75.20;;;;;;5040504;28;19935;-74
2022/09/06 07:14:11;;;;;;;;;;;19.80;75.30;;;;;;5041494;28;19935;-74
2022/09/06 07:16:38;;;;;;;;;;;19.80;75.30;;;;;;5041562;28;19933;-74
2022/09/06 07:19:04;;;;;;;;;;;19.80;75.30;;;;;;5037540;28;19936;-72
2022/09/06 07:21:31;;;;;;;;;;;19.80;75.40;;;;;;5040857;28;19928;-72
2022/09/06 07:23:57;;;;;;;;;;;19.80;75.60;;;;;;5036841;28;19929;-73
2022/09/06 07:26:25;;;;;;;;;;;19.80;75.60;;;;;;5040563;28;20440;-73
2022/09/06 07:28:53;;;;;;;;;;;19.80;76.40;;;;;;5038296;28;21013;-73
2022/09/06 07:31:19;;;;;;;;;;;19.90;75.70;;;;;;5040571;28;19940;-73
2022/09/06 07:33:46;;;;;;;;;;;19.90;76.40;;;;;;5037567;28;19940;-73
2022/09/06 07:36:12;;;;;;;;;;;19.90;77.00;;;;;;5040391;28;19929;-73
2022/09/06 07:38:39;;;;;;;;;;;19.90;77.20;;;;;;5040000;28;19970;-73
2022/09/06 07:41:06;;;;;;;;;;;19.90;77.20;;;;;;5039153;28;19928;-72
2022/09/06 07:43:33;;;;;;;;;;;20.00;77.00;;;;;;5039745;28;19928;-72
2022/09/06 07:46:03;;;;;;;;;;;20.00;76.40;;;;;;5036857;28;19928;-72
2022/09/06 07:48:30;;;;;;;;;;;20.00;76.40;;;;;;5037922;28;19981;-72
2022/09/06 07:51:02;;;;;;;;;;;20.00;76.30;;;;;;5038347;28;20811;-72
2022/09/06 07:53:29;;;;;;;;;;;20.10;76.40;;;;;;5037817;28;20745;-72
2022/09/06 07:55:55;;;;;;;;;;;20.10;76.30;;;;;;5039792;28;20369;-73
2022/09/06 07:58:22;;;;;;;;;;;20.10;76.20;;;;;;5038771;28;19937;-73
2022/09/06 08:00:49;;;;;;;;;;;20.10;76.00;;;;;;5034664;28;19965;-72
2022/09/06 08:03:17;;;;;;;;;;;20.20;75.90;;;;;;5035214;28;20601;-73
2022/09/06 08:05:43;;;;;;;;;;;20.20;76.00;;;;;;5033793;28;19932;-73
2022/09/06 08:08:10;;;;;;;;;;;20.20;75.90;;;;;;5035951;28;20340;-72
2022/09/06 08:10:36;;;;;;;;;;;20.20;75.70;;;;;;5040868;28;19936;-73
2022/09/06 08:13:03;;;;;;;;;;;20.20;75.50;;;;;;5040551;28;19935;-73
2022/09/06 08:15:30;;;;;;;;;;;20.20;75.40;;;;;;5038755;28;19929;-73
2022/09/06 08:17:57;;;;;;;;;;;20.30;75.40;;;;;;5038953;28;20022;-73
2022/09/06 08:20:25;;;;;;;;;;;20.30;75.10;;;;;;5039807;28;19929;-73
2022/09/06 08:22:51;;;;;;;;;;;20.30;75.00;;;;;;5039785;28;19933;-72
2022/09/06 08:25:18;;;;;;;;;;;20.40;75.00;;;;;;5036989;28;19940;-72
2022/09/06 08:27:44;;;;;;;;;;;20.40;74.80;;;;;;5038227;28;19929;-72
2022/09/06 08:30:11;;;;;;;;;;;20.40;74.70;;;;;;5036113;28;19929;-72
2022/09/06 08:32:39;;;;;;;;;;;20.40;74.50;;;;;;5037264;28;19940;-72
2022/09/06 08:35:06;;;;;;;;;;;20.50;74.50;;;;;;5037366;28;19976;-73
2022/09/06 08:37:34;;;;;;;;;;;20.50;74.30;;;;;;5038456;28;19932;-72
2022/09/06 08:40:01;;;;;;;;;;;20.60;74.20;;;;;;5039102;28;19925;-72
2022/09/06 08:42:27;;;;;;;;;;;20.60;73.90;;;;;;5041585;28;19928;-71
2022/09/06 08:44:56;;;;;;;;;;;20.60;73.70;;;;;;5042941;28;19974;-73
2022/09/06 08:47:23;;;;;;;;;;;20.70;73.50;;;;;;5040046;28;19928;-73
2022/09/06 08:49:51;;;;;;;;;;;20.80;73.30;;;;;;5042919;28;19937;-72
2022/09/06 08:52:22;;;;;;;;;;;20.80;73.00;;;;;;5037141;28;19941;-72
2022/09/06 08:54:54;;;;;;;;;;;20.90;72.80;;;;;;5039379;28;19928;-72
2022/09/06 08:57:29;;;;;;;;;;;21.00;72.90;;;;;;5040741;28;19929;-72
2022/09/06 08:59:58;;;;;;;;;;;21.00;72.60;;;;;;5039864;28;20006;-73
2022/09/06 09:02:25;;;;;;;;;;;21.10;72.40;;;;;;5042600;28;19929;-72
2022/09/06 09:04:53;;;;;;;;;;;21.10;72.20;;;;;;5041365;28;19959;-71
2022/09/06 09:07:24;;;;;;;;;;;21.10;72.10;;;;;;5041840;28;19933;-71
2022/09/06 09:09:52;;;;;;;;;;;21.20;72.00;;;;;;5040075;28;19929;-71
2022/09/06 09:12:21;;;;;;;;;;;21.30;71.70;;;;;;5041128;28;19933;-72
2022/09/06 09:14:49;;;;;;;;;;;21.30;71.60;;;;;;5042558;28;20487;-71
2022/09/06 09:17:19;;;;;;;;;;;21.40;71.50;;;;;;5042015;28;20011;-72
2022/09/06 09:19:46;;;;;;;;;;;21.50;71.40;;;;;;5039683;28;19924;-72
2022/09/06 09:22:13;;;;;;;;;;;21.50;71.20;;;;;;5041593;28;19929;-71
2022/09/06 09:24:40;;;;;;;;;;;21.60;71.00;;;;;;5040684;28;19936;-71
2022/09/06 09:27:10;;;;;;;;;;;21.60;70.70;;;;;;5039187;28;19941;-71
2022/09/06 09:29:56;;;;;;;;;;;21.70;70.70;;;;;;5039477;28;19944;-72
2022/09/06 09:32:28;;;;;;;;;;;21.80;70.60;;;;;;5040630;28;19932;-72
2022/09/06 09:34:55;;;;;;;;;;;21.80;70.30;;;;;;5039868;28;20334;-76
2022/09/06 09:37:23;;;;;;;;;;;21.90;70.10;;;;;;5031164;28;19925;-75
2022/09/06 09:39:52;;;;;;;;;;;22.00;70.10;;;;;;5033690;28;20066;-77
2022/09/06 09:42:25;;;;;;;;;;;22.00;69.90;;;;;;5038478;28;19936;-76
2022/09/06 09:44:52;;;;;;;;;;;22.10;69.90;;;;;;5040907;28;19933;-76
2022/09/06 09:47:23;;;;;;;;;;;22.20;69.80;;;;;;5033380;28;20710;-76
2022/09/06 09:49:50;;;;;;;;;;;22.20;69.60;;;;;;5035181;28;20404;-76
2022/09/06 09:52:23;;;;;;;;;;;22.30;69.50;;;;;;5036148;28;20393;-76
2022/09/06 09:54:54;;;;;;;;;;;22.30;69.40;;;;;;5038613;28;19932;-76
2022/09/06 09:57:21;;;;;;;;;;;22.40;69.40;;;;;;5035782;28;19933;-76
2022/09/06 09:59:50;;;;;;;;;;;22.40;69.30;;;;;;5036834;28;19932;-76
2022/09/06 10:02:18;;;;;;;;;;;22.50;69.20;;;;;;5032672;28;20381;-76
2022/09/06 10:04:48;;;;;;;;;;;22.50;69.10;;;;;;5031762;28;19939;-76
2022/09/06 10:07:16;;;;;;;;;;;22.60;69.00;;;;;;5036414;28;20459;-76
2022/09/06 10:09:43;;;;;;;;;;;22.60;69.00;;;;;;5035019;28;19929;-77
2022/09/06 10:12:15;;;;;;;;;;;22.70;68.90;;;;;;5040745;28;19936;-76
2022/09/06 10:14:42;;;;;;;;;;;22.70;68.80;;;;;;5040149;28;19936;-75
2022/09/06 10:17:17;;;;;;;;;;;22.70;68.70;;;;;;5039326;28;20404;-72
2022/09/06 10:19:45;;;;;;;;;;;22.80;68.60;;;;;;5041181;28;19991;-74
2022/09/06 10:22:22;;;;;;;;;;;22.90;68.50;;;;;;5039983;28;19933;-74
2022/09/06 10:24:55;;;;;;;;;;;22.90;68.30;;;;;;5037821;28;19972;-74
2022/09/06 10:27:25;;;;;;;;;;;23.00;68.20;;;;;;5038402;28;19986;-75
2022/09/06 10:29:55;;;;;;;;;;;23.10;68.10;;;;;;5039805;28;19928;-75
2022/09/06 10:32:32;;;;;;;;;;;23.10;68.00;;;;;;5037758;28;19932;-74
2022/09/06 10:35:09;;;;;;;;;;;23.10;67.80;;;;;;5035684;28;19929;-74
2022/09/06 10:37:48;;;;;;;;;;;23.20;67.70;;;;;;5040328;28;19932;-74
2022/09/06 10:40:19;;;;;;;;;;;23.30;67.70;;;;;;5038202;28;19951;-74
2022/09/06 10:42:48;;;;;;;;;;;23.30;67.60;;;;;;5042629;28;19963;-74
2022/09/06 10:45:27;;;;;;;;;;;23.30;67.40;;;;;;5043335;28;19929;-74
2022/09/06 10:48:00;;;;;;;;;;;23.40;67.30;;;;;;5037572;28;19933;-72
2022/09/06 10:50:34;;;;;;;;;;;23.40;66.90;;;;;;5039551;28;19940;-74
2022/09/06 10:53:06;;;;;;;;;;;23.50;66.80;;;;;;5034966;28;19950;-74
2022/09/06 10:55:33;;;;;;;;;;;23.60;66.60;;;;;;5040413;28;19928;-73
2022/09/06 10:58:03;;;;;;;;;;;23.60;66.30;;;;;;5039425;28;19940;-74
2022/09/06 11:00:32;;;;;;;;;;;23.70;66.20;;;;;;5037257;28;19932;-74
2022/09/06 11:03:03;;;;;;;;;;;23.80;66.00;;;;;;5041746;28;20530;-74
2022/09/06 11:05:32;;;;;;;;;;;23.90;65.90;;;;;;5037788;28;19929;-74
2022/09/06 11:08:00;;;;;;;;;;;23.90;66.50;;;;;;5038920;28;19936;-72
2022/09/06 11:10:29;;;;;;;;;;;24.00;65.50;;;;;;5038896;28;20410;-74
2022/09/06 11:12:57;;;;;;;;;;;24.10;65.20;;;;;;5038085;28;19928;-74
2022/09/06 11:15:24;;;;;;;;;;;24.10;65.10;;;;;;5036623;28;20342;-73
2022/09/06 11:17:53;;;;;;;;;;;24.20;64.80;;;;;;5038538;28;20380;-74
2022/09/06 11:20:24;;;;;;;;;;;24.30;64.90;;;;;;5040959;28;19933;-73
2022/09/06 11:23:02;;;;;;;;;;;24.30;64.60;;;;;;5040201;28;19929;-73
2022/09/06 11:25:40;;;;;;;;;;;24.40;64.50;;;;;;5040386;28;19928;-73
2022/09/06 11:28:08;;;;;;;;;;;24.50;64.30;;;;;;5037097;28;19929;-74
2022/09/06 11:30:35;;;;;;;;;;;24.60;64.20;;;;;;5036562;28;20016;-73
2022/09/06 11:33:12;;;;;;;;;;;24.70;63.90;;;;;;5038189;28;19975;-73
2022/09/06 11:35:41;;;;;;;;;;;24.70;63.80;;;;;;5038341;28;20423;-74
2022/09/06 11:38:17;;;;;;;;;;;24.70;63.50;;;;;;5036577;28;20437;-74
2022/09/06 11:40:44;;;;;;;;;;;24.90;63.40;;;;;;5037583;28;20589;-73
2022/09/06 11:43:13;;;;;;;;;;;24.90;63.10;;;;;;5036231;28;20011;-73
2022/09/06 11:45:42;;;;;;;;;;;25.00;63.10;;;;;;5039538;28;19932;-73
2022/09/06 11:48:33;;;;;;;;;;;25.10;63.00;;;;;;5038129;28;19929;-73
2022/09/06 11:51:02;;;;;;;;;;;25.20;62.70;;;;;;5034316;28;20091;-73
2022/09/06 11:53:29;;;;;;;;;;;25.30;62.60;;;;;;5036284;28;21742;-74
2022/09/06 11:56:10;;;;;;;;;;;25.30;62.60;;;;;;5037163;28;19936;-73
2022/09/06 11:58:45;;;;;;;;;;;25.30;62.40;;;;;;5037980;28;19929;-74
2022/09/06 12:01:30;;;;;;;;;;;25.40;62.20;;;;;;5034971;28;19928;-74
2022/09/06 12:04:00;;;;;;;;;;;25.50;62.00;;;;;;5039197;28;19933;-74
2022/09/06 12:06:30;;;;;;;;;;;25.50;61.80;;;;;;5035294;28;19933;-73
2022/09/06 12:08:57;;;;;;;;;;;25.60;61.90;;;;;;5036938;28;20438;-74
2022/09/06 12:11:34;;;;;;;;;;;25.60;61.40;;;;;;5038583;28;19929;-74
2022/09/06 12:14:02;;;;;;;;;;;25.70;61.50;;;;;;5037100;28;19936;-73
2022/09/06 12:16:48;;;;;;;;;;;25.80;61.50;;;;;;5035393;28;19932;-73
2022/09/06 12:19:29;;;;;;;;;;;25.80;61.30;;;;;;5034131;28;19940;-74
2022/09/06 12:21:57;;;;;;;;;;;26.20;60.50;;;;;;5032488;28;19928;-74
2022/09/06 12:24:43;;;;;;;;;;;26.60;60.10;;;;;;5036890;28;19936;-74
2022/09/06 12:27:12;;;;;;;;;;;26.80;59.70;;;;;;5037248;28;19929;-73
2022/09/06 12:29:38;;;;;;;;;;;27.00;59.00;;;;;;5040160;28;19929;-73
2022/09/06 12:32:05;;;;;;;;;;;27.20;58.90;;;;;;5028765;28;20597;-73
2022/09/06 12:34:34;;;;;;;;;;;27.40;58.80;;;;;;5028713;28;20472;-73
2022/09/06 12:37:03;;;;;;;;;;;27.50;58.30;;;;;;5032803;28;20087;-73
2022/09/06 12:39:30;;;;;;;;;;;27.70;58.10;;;;;;5039306;28;19935;-68
2022/09/06 12:42:00;;;;;;;;;;;27.80;57.80;;;;;;5041562;28;19933;-68
2022/09/06 12:44:30;;;;;;;;;;;27.90;57.40;;;;;;5039494;28;19929;-68
2022/09/06 12:46:59;;;;;;;;;;;28.00;57.30;;;;;;5041704;28;19929;-68
2022/09/06 12:49:26;;;;;;;;;;;28.10;56.90;;;;;;5041080;28;19936;-68
2022/09/06 12:52:05;;;;;;;;;;;28.20;56.70;;;;;;5041632;28;19929;-69
2022/09/06 12:54:33;;;;;;;;;;;28.30;56.40;;;;;;5036297;28;20611;-68
2022/09/06 12:57:11;;;;;;;;;;;28.30;56.10;;;;;;5042592;28;19928;-65
2022/09/06 12:59:37;;;;;;;;;;;28.40;56.10;;;;;;5042105;28;19933;-68
2022/09/06 13:02:06;;;;;;;;;;;28.40;56.10;;;;;;5038404;28;19933;-67
2022/09/06 13:04:38;;;;;;;;;;;28.50;56.10;;;;;;5037076;28;19986;-67
2022/09/06 13:07:06;;;;;;;;;;;28.50;55.80;;;;;;5039767;28;20643;-67
2022/09/06 13:09:34;;;;;;;;;;;28.60;55.70;;;;;;5041066;28;19936;-68
2022/09/06 13:12:03;;;;;;;;;;;28.60;56.20;;;;;;5035379;28;19932;-69
2022/09/06 13:14:30;;;;;;;;;;;28.70;55.50;;;;;;5035384;28;19937;-69
2022/09/06 13:16:58;;;;;;;;;;;28.70;55.50;;;;;;5042207;28;19999;-68
2022/09/06 13:19:32;;;;;;;;;;;28.80;55.50;;;;;;5035487;28;19964;-68
2022/09/06 13:21:59;;;;;;;;;;;28.80;55.40;;;;;;5042995;28;19929;-66
2022/09/06 13:24:27;;;;;;;;;;;28.90;55.10;;;;;;5037220;28;19936;-68
2022/09/06 13:26:55;;;;;;;;;;;28.90;55.70;;;;;;5042214;28;19939;-68
2022/09/06 13:29:22;;;;;;;;;;;28.90;55.10;;;;;;5041227;28;20032;-69
2022/09/06 13:31:50;;;;;;;;;;;29.00;55.00;;;;;;5034118;28;19941;-68
2022/09/06 13:34:20;;;;;;;;;;;29.00;54.90;;;;;;5039680;28;20029;-67
2022/09/06 13:36:48;;;;;;;;;;;29.10;54.70;;;;;;5037072;28;19929;-67
2022/09/06 13:39:28;;;;;;;;;;;29.10;54.30;;;;;;5037502;28;20423;-68
2022/09/06 13:41:59;;;;;;;;;;;29.10;54.40;;;;;;5039299;28;19983;-70
2022/09/06 13:44:30;;;;;;;;;;;29.20;54.70;;;;;;5045743;28;19936;-68
2022/09/06 13:46:56;;;;;;;;;;;29.20;54.50;;;;;;5041571;28;19929;-68
2022/09/06 13:49:23;;;;;;;;;;;29.20;54.20;;;;;;5044550;28;19928;-68
2022/09/06 13:51:51;;;;;;;;;;;29.30;54.00;;;;;;5048889;28;20392;-70
2022/09/06 13:54:17;;;;;;;;;;;29.30;53.40;;;;;;5044496;28;19976;-67
2022/09/06 13:56:44;;;;;;;;;;;29.30;53.50;;;;;;5045548;28;19935;-69
2022/09/06 13:59:12;;;;;;;;;;;29.40;53.30;;;;;;5045006;28;19933;-69
2022/09/06 14:01:40;;;;;;;;;;;29.40;53.40;;;;;;5044935;28;19933;-69
2022/09/06 14:04:07;;;;;;;;;;;29.40;53.70;;;;;;5040503;28;19936;-67
2022/09/06 14:06:34;;;;;;;;;;;29.40;53.70;;;;;;5042269;28;19937;-69
2022/09/06 14:09:01;;;;;;;;;;;29.50;53.50;;;;;;5040837;28;20522;-69
2022/09/06 14:11:28;;;;;;;;;;;29.50;53.20;;;;;;5043562;28;19928;-69
2022/09/06 14:13:54;;;;;;;;;;;29.60;53.20;;;;;;5042398;28;19933;-69
2022/09/06 14:16:22;;;;;;;;;;;29.60;53.10;;;;;;5043273;28;19966;-68
2022/09/06 14:18:50;;;;;;;;;;;29.60;53.40;;;;;;5041173;28;19933;-68
2022/09/06 14:21:17;;;;;;;;;;;29.70;53.50;;;;;;5039739;28;19940;-68
2022/09/06 14:23:49;;;;;;;;;;;29.70;53.70;;;;;;5046658;28;20011;-70